sensor_id;sensor_type;location;lat;lon;timestamp;P1;durP1;ratioP1;P2;durP2;ratioP2
59038;SDS011;44824;43.376;19.630;2022-10-16T00:00:56;31.45;;;17.13;;
59038;SDS011;44824;43.376;19.630;2022-10-16T00:03:22;42.03;;;17.95;;
59038;SDS011;44824;43.376;19.630;2022-10-16T00:11:56;21.90;;;13.57;;
59038;SDS011;44824;43.376;19.630;2022-10-16T00:14:22;21.27;;;13.32;;
59038;SDS011;44824;43.376;19.630;2022-10-16T00:16:48;29.45;;;15.38;;
59038;SDS011;44824;43.376;19.630;2022-10-16T00:19:14;24.77;;;13.30;;
59038;SDS011;44824;43.376;19.630;2022-10-16T00:21:53;25.97;;;12.97;;
59038;SDS011;44824;43.376;19.630;2022-10-16T00:24:19;24.98;;;12.48;;
59038;SDS011;44824;43.376;19.630;2022-10-16T00:26:45;30.65;;;14.10;;
59038;SDS011;44824;43.376;19.630;2022-10-16T00:29:11;32.45;;;15.88;;
59038;SDS011;44824;43.376;19.630;2022-10-16T00:31:37;30.17;;;14.57;;
59038;SDS011;44824;43.376;19.630;2022-10-16T00:34:03;33.80;;;15.18;;
59038;SDS011;44824;43.376;19.630;2022-10-16T00:45:27;25.60;;;13.80;;
59038;SDS011;44824;43.376;19.630;2022-10-16T00:47:54;24.63;;;14.65;;
59038;SDS011;44824;43.376;19.630;2022-10-16T00:50:39;23.27;;;13.25;;
59038;SDS011;44824;43.376;19.630;2022-10-16T00:56:11;21.90;;;13.45;;
59038;SDS011;44824;43.376;19.630;2022-10-16T00:58:38;20.50;;;11.80;;
59038;SDS011;44824;43.376;19.630;2022-10-16T01:01:04;22.45;;;11.77;;
59038;SDS011;44824;43.376;19.630;2022-10-16T01:03:31;24.05;;;11.88;;
59038;SDS011;44824;43.376;19.630;2022-10-16T01:11:31;29.70;;;17.05;;
59038;SDS011;44824;43.376;19.630;2022-10-16T01:13:59;31.63;;;16.88;;
59038;SDS011;44824;43.376;19.630;2022-10-16T01:16:48;27.33;;;15.77;;
59038;SDS011;44824;43.376;19.630;2022-10-16T01:19:20;31.92;;;14.23;;
59038;SDS011;44824;43.376;19.630;2022-10-16T01:24:55;22.88;;;11.43;;
59038;SDS011;44824;43.376;19.630;2022-10-16T01:27:25;18.95;;;10.13;;
59038;SDS011;44824;43.376;19.630;2022-10-16T01:32:25;20.27;;;10.95;;
59038;SDS011;44824;43.376;19.630;2022-10-16T01:35:04;29.05;;;11.77;;
59038;SDS011;44824;43.376;19.630;2022-10-16T01:40:36;26.75;;;10.88;;
59038;SDS011;44824;43.376;19.630;2022-10-16T01:43:08;20.17;;;9.18;;
59038;SDS011;44824;43.376;19.630;2022-10-16T01:45:34;19.65;;;9.15;;
59038;SDS011;44824;43.376;19.630;2022-10-16T01:48:02;18.23;;;9.32;;
59038;SDS011;44824;43.376;19.630;2022-10-16T01:50:31;22.70;;;9.95;;
59038;SDS011;44824;43.376;19.630;2022-10-16T01:53:08;37.30;;;14.82;;
59038;SDS011;44824;43.376;19.630;2022-10-16T01:55:37;28.63;;;12.93;;
59038;SDS011;44824;43.376;19.630;2022-10-16T01:58:07;32.63;;;13.15;;
59038;SDS011;44824;43.376;19.630;2022-10-16T02:00:33;31.23;;;12.77;;
59038;SDS011;44824;43.376;19.630;2022-10-16T02:03:02;39.88;;;15.13;;
59038;SDS011;44824;43.376;19.630;2022-10-16T02:05:34;34.25;;;13.98;;
59038;SDS011;44824;43.376;19.630;2022-10-16T02:14:01;38.55;;;15.82;;
59038;SDS011;44824;43.376;19.630;2022-10-16T02:16:33;34.50;;;14.82;;
59038;SDS011;44824;43.376;19.630;2022-10-16T02:19:00;33.35;;;15.65;;
59038;SDS011;44824;43.376;19.630;2022-10-16T02:21:27;52.92;;;17.25;;
59038;SDS011;44824;43.376;19.630;2022-10-16T02:26:43;44.50;;;17.15;;
59038;SDS011;44824;43.376;19.630;2022-10-16T02:29:12;41.95;;;16.92;;
59038;SDS011;44824;43.376;19.630;2022-10-16T02:31:41;55.85;;;17.35;;
59038;SDS011;44824;43.376;19.630;2022-10-16T02:34:10;66.53;;;15.57;;
59038;SDS011;44824;43.376;19.630;2022-10-16T02:36:37;60.20;;;15.70;;
59038;SDS011;44824;43.376;19.630;2022-10-16T02:44:54;46.03;;;13.60;;
59038;SDS011;44824;43.376;19.630;2022-10-16T02:47:21;70.97;;;15.45;;
59038;SDS011;44824;43.376;19.630;2022-10-16T02:49:47;35.50;;;14.15;;
59038;SDS011;44824;43.376;19.630;2022-10-16T02:52:13;37.50;;;13.52;;
59038;SDS011;44824;43.376;19.630;2022-10-16T02:57:42;29.20;;;13.98;;
59038;SDS011;44824;43.376;19.630;2022-10-16T03:00:09;51.67;;;15.83;;
59038;SDS011;44824;43.376;19.630;2022-10-16T03:02:35;31.63;;;13.63;;
59038;SDS011;44824;43.376;19.630;2022-10-16T03:05:01;63.47;;;16.17;;
59038;SDS011;44824;43.376;19.630;2022-10-16T03:07:27;39.92;;;13.80;;
59038;SDS011;44824;43.376;19.630;2022-10-16T03:12:57;127.40;;;15.07;;
59038;SDS011;44824;43.376;19.630;2022-10-16T03:15:23;40.95;;;14.07;;
59038;SDS011;44824;43.376;19.630;2022-10-16T03:17:49;57.72;;;14.80;;
59038;SDS011;44824;43.376;19.630;2022-10-16T03:20:15;99.93;;;16.13;;
59038;SDS011;44824;43.376;19.630;2022-10-16T03:22:41;125.70;;;16.17;;
59038;SDS011;44824;43.376;19.630;2022-10-16T03:27:53;69.95;;;14.40;;
59038;SDS011;44824;43.376;19.630;2022-10-16T03:30:19;45.15;;;13.13;;
59038;SDS011;44824;43.376;19.630;2022-10-16T03:32:46;85.35;;;15.15;;
59038;SDS011;44824;43.376;19.630;2022-10-16T03:35:12;46.63;;;14.43;;
59038;SDS011;44824;43.376;19.630;2022-10-16T03:37:38;106.73;;;13.33;;
59038;SDS011;44824;43.376;19.630;2022-10-16T03:43:08;50.45;;;13.50;;
59038;SDS011;44824;43.376;19.630;2022-10-16T03:45:34;90.68;;;13.98;;
59038;SDS011;44824;43.376;19.630;2022-10-16T03:48:00;45.95;;;12.85;;
59038;SDS011;44824;43.376;19.630;2022-10-16T03:50:28;26.45;;;13.25;;
59038;SDS011;44824;43.376;19.630;2022-10-16T03:52:54;40.38;;;13.18;;
59038;SDS011;44824;43.376;19.630;2022-10-16T03:55:23;89.80;;;12.85;;
59038;SDS011;44824;43.376;19.630;2022-10-16T03:57:49;56.15;;;13.35;;
59038;SDS011;44824;43.376;19.630;2022-10-16T04:00:15;48.45;;;12.40;;
59038;SDS011;44824;43.376;19.630;2022-10-16T04:02:41;75.47;;;14.57;;
59038;SDS011;44824;43.376;19.630;2022-10-16T04:05:08;64.85;;;13.15;;
59038;SDS011;44824;43.376;19.630;2022-10-16T04:07:34;38.00;;;14.15;;
59038;SDS011;44824;43.376;19.630;2022-10-16T04:10:12;37.33;;;12.25;;
59038;SDS011;44824;43.376;19.630;2022-10-16T04:12:38;59.92;;;12.25;;
59038;SDS011;44824;43.376;19.630;2022-10-16T04:15:05;29.00;;;11.07;;
59038;SDS011;44824;43.376;19.630;2022-10-16T04:17:31;45.05;;;12.38;;
59038;SDS011;44824;43.376;19.630;2022-10-16T04:19:57;73.28;;;13.38;;
59038;SDS011;44824;43.376;19.630;2022-10-16T04:22:23;109.15;;;14.25;;
59038;SDS011;44824;43.376;19.630;2022-10-16T04:27:53;48.28;;;12.98;;
59038;SDS011;44824;43.376;19.630;2022-10-16T04:30:20;38.72;;;12.52;;
59038;SDS011;44824;43.376;19.630;2022-10-16T04:32:49;38.70;;;17.93;;
59038;SDS011;44824;43.376;19.630;2022-10-16T04:35:16;59.83;;;20.08;;
59038;SDS011;44824;43.376;19.630;2022-10-16T04:37:42;26.85;;;11.95;;
59038;SDS011;44824;43.376;19.630;2022-10-16T04:40:08;38.17;;;10.95;;
59038;SDS011;44824;43.376;19.630;2022-10-16T04:42:34;25.38;;;10.55;;
59038;SDS011;44824;43.376;19.630;2022-10-16T04:45:00;35.20;;;11.02;;
59038;SDS011;44824;43.376;19.630;2022-10-16T04:47:27;38.03;;;10.95;;
59038;SDS011;44824;43.376;19.630;2022-10-16T04:49:53;35.50;;;10.23;;
59038;SDS011;44824;43.376;19.630;2022-10-16T04:52:19;37.28;;;11.45;;
59038;SDS011;44824;43.376;19.630;2022-10-16T04:57:51;30.15;;;13.07;;
59038;SDS011;44824;43.376;19.630;2022-10-16T05:02:43;41.38;;;11.32;;
59038;SDS011;44824;43.376;19.630;2022-10-16T05:05:09;23.15;;;10.55;;
59038;SDS011;44824;43.376;19.630;2022-10-16T05:07:35;49.72;;;10.95;;
59038;SDS011;44824;43.376;19.630;2022-10-16T05:10:01;19.73;;;9.27;;
59038;SDS011;44824;43.376;19.630;2022-10-16T05:12:28;34.30;;;11.57;;
59038;SDS011;44824;43.376;19.630;2022-10-16T05:14:54;36.08;;;12.35;;
59038;SDS011;44824;43.376;19.630;2022-10-16T05:17:23;20.13;;;10.52;;
59038;SDS011;44824;43.376;19.630;2022-10-16T05:19:50;20.45;;;9.60;;
59038;SDS011;44824;43.376;19.630;2022-10-16T05:22:16;22.83;;;9.50;;
59038;SDS011;44824;43.376;19.630;2022-10-16T05:30:40;22.67;;;8.55;;
59038;SDS011;44824;43.376;19.630;2022-10-16T05:33:06;20.23;;;8.57;;
59038;SDS011;44824;43.376;19.630;2022-10-16T05:35:32;20.38;;;8.27;;
59038;SDS011;44824;43.376;19.630;2022-10-16T05:37:59;19.05;;;8.50;;
59038;SDS011;44824;43.376;19.630;2022-10-16T05:40:31;18.52;;;8.45;;
59038;SDS011;44824;43.376;19.630;2022-10-16T05:42:57;15.45;;;8.40;;
59038;SDS011;44824;43.376;19.630;2022-10-16T05:45:23;20.38;;;8.98;;
59038;SDS011;44824;43.376;19.630;2022-10-16T05:47:49;14.57;;;8.48;;
59038;SDS011;44824;43.376;19.630;2022-10-16T05:50:16;52.00;;;9.05;;
59038;SDS011;44824;43.376;19.630;2022-10-16T05:52:42;19.05;;;9.45;;
59038;SDS011;44824;43.376;19.630;2022-10-16T05:55:09;26.60;;;9.23;;
59038;SDS011;44824;43.376;19.630;2022-10-16T05:57:35;26.13;;;8.27;;
59038;SDS011;44824;43.376;19.630;2022-10-16T06:00:04;35.78;;;10.63;;
59038;SDS011;44824;43.376;19.630;2022-10-16T06:02:31;21.80;;;10.30;;
59038;SDS011;44824;43.376;19.630;2022-10-16T06:04:57;25.38;;;11.88;;
59038;SDS011;44824;43.376;19.630;2022-10-16T06:07:23;39.72;;;13.20;;
59038;SDS011;44824;43.376;19.630;2022-10-16T06:13:12;35.42;;;13.88;;
59038;SDS011;44824;43.376;19.630;2022-10-16T06:15:38;26.40;;;14.40;;
59038;SDS011;44824;43.376;19.630;2022-10-16T06:18:06;66.75;;;13.52;;
59038;SDS011;44824;43.376;19.630;2022-10-16T06:20:32;46.20;;;14.52;;
59038;SDS011;44824;43.376;19.630;2022-10-16T06:22:58;28.85;;;17.23;;
59038;SDS011;44824;43.376;19.630;2022-10-16T06:31:32;33.17;;;14.45;;
59038;SDS011;44824;43.376;19.630;2022-10-16T06:33:58;56.60;;;15.15;;
59038;SDS011;44824;43.376;19.630;2022-10-16T06:36:25;36.58;;;15.23;;
59038;SDS011;44824;43.376;19.630;2022-10-16T06:38:51;24.75;;;14.90;;
59038;SDS011;44824;43.376;19.630;2022-10-16T06:44:24;35.95;;;15.23;;
59038;SDS011;44824;43.376;19.630;2022-10-16T06:46:50;36.22;;;13.50;;
59038;SDS011;44824;43.376;19.630;2022-10-16T06:49:22;32.75;;;16.15;;
59038;SDS011;44824;43.376;19.630;2022-10-16T06:51:58;38.03;;;14.65;;
59038;SDS011;44824;43.376;19.630;2022-10-16T06:54:25;141.02;;;93.43;;
59038;SDS011;44824;43.376;19.630;2022-10-16T06:59:39;33.33;;;18.60;;
59038;SDS011;44824;43.376;19.630;2022-10-16T07:02:08;32.38;;;16.20;;
59038;SDS011;44824;43.376;19.630;2022-10-16T07:04:40;30.42;;;16.90;;
59038;SDS011;44824;43.376;19.630;2022-10-16T07:07:06;27.77;;;17.38;;
59038;SDS011;44824;43.376;19.630;2022-10-16T07:09:33;38.22;;;19.70;;
59038;SDS011;44824;43.376;19.630;2022-10-16T07:15:04;24.70;;;14.88;;
59038;SDS011;44824;43.376;19.630;2022-10-16T07:17:40;28.20;;;16.10;;
59038;SDS011;44824;43.376;19.630;2022-10-16T07:20:12;26.55;;;14.32;;
59038;SDS011;44824;43.376;19.630;2022-10-16T07:22:38;25.58;;;15.68;;
59038;SDS011;44824;43.376;19.630;2022-10-16T07:25:05;26.15;;;14.63;;
59038;SDS011;44824;43.376;19.630;2022-10-16T07:27:31;25.80;;;15.20;;
59038;SDS011;44824;43.376;19.630;2022-10-16T07:30:00;25.27;;;17.65;;
59038;SDS011;44824;43.376;19.630;2022-10-16T07:35:25;27.35;;;15.55;;
59038;SDS011;44824;43.376;19.630;2022-10-16T07:37:51;27.25;;;15.93;;
59038;SDS011;44824;43.376;19.630;2022-10-16T07:40:26;27.08;;;15.68;;
59038;SDS011;44824;43.376;19.630;2022-10-16T07:42:56;25.85;;;16.17;;
59038;SDS011;44824;43.376;19.630;2022-10-16T07:45:31;27.02;;;14.95;;
59038;SDS011;44824;43.376;19.630;2022-10-16T07:48:19;33.08;;;16.80;;
59038;SDS011;44824;43.376;19.630;2022-10-16T07:50:58;23.13;;;13.98;;
59038;SDS011;44824;43.376;19.630;2022-10-16T07:53:24;21.90;;;14.18;;
59038;SDS011;44824;43.376;19.630;2022-10-16T07:55:59;25.30;;;17.00;;
59038;SDS011;44824;43.376;19.630;2022-10-16T07:58:26;22.25;;;13.77;;
59038;SDS011;44824;43.376;19.630;2022-10-16T08:01:14;23.70;;;17.65;;
59038;SDS011;44824;43.376;19.630;2022-10-16T08:03:51;21.50;;;12.65;;
59038;SDS011;44824;43.376;19.630;2022-10-16T08:06:20;16.63;;;11.50;;
59038;SDS011;44824;43.376;19.630;2022-10-16T08:08:46;15.32;;;10.10;;
59038;SDS011;44824;43.376;19.630;2022-10-16T08:11:16;19.27;;;11.43;;
59038;SDS011;44824;43.376;19.630;2022-10-16T08:13:42;18.77;;;11.00;;
59038;SDS011;44824;43.376;19.630;2022-10-16T08:16:08;16.73;;;11.20;;
59038;SDS011;44824;43.376;19.630;2022-10-16T08:18:35;16.90;;;11.15;;
59038;SDS011;44824;43.376;19.630;2022-10-16T08:21:02;17.98;;;12.02;;
59038;SDS011;44824;43.376;19.630;2022-10-16T08:23:29;17.15;;;10.75;;
59038;SDS011;44824;43.376;19.630;2022-10-16T08:25:56;14.30;;;10.33;;
59038;SDS011;44824;43.376;19.630;2022-10-16T08:28:22;16.10;;;9.82;;
59038;SDS011;44824;43.376;19.630;2022-10-16T08:30:48;19.08;;;9.82;;
59038;SDS011;44824;43.376;19.630;2022-10-16T08:33:15;15.70;;;10.47;;
59038;SDS011;44824;43.376;19.630;2022-10-16T08:35:41;14.98;;;9.57;;
59038;SDS011;44824;43.376;19.630;2022-10-16T08:38:07;14.13;;;9.30;;
59038;SDS011;44824;43.376;19.630;2022-10-16T08:40:33;15.18;;;8.98;;
59038;SDS011;44824;43.376;19.630;2022-10-16T08:45:34;13.82;;;7.35;;
59038;SDS011;44824;43.376;19.630;2022-10-16T08:50:46;13.60;;;6.90;;
59038;SDS011;44824;43.376;19.630;2022-10-16T08:53:15;12.80;;;6.57;;
59038;SDS011;44824;43.376;19.630;2022-10-16T08:55:42;12.20;;;5.88;;
59038;SDS011;44824;43.376;19.630;2022-10-16T09:12:52;11.95;;;6.82;;
59038;SDS011;44824;43.376;19.630;2022-10-16T09:15:31;12.07;;;7.65;;
59038;SDS011;44824;43.376;19.630;2022-10-16T09:18:06;12.15;;;7.05;;
59038;SDS011;44824;43.376;19.630;2022-10-16T09:25:41;7.60;;;4.80;;
59038;SDS011;44824;43.376;19.630;2022-10-16T09:28:08;9.10;;;4.50;;
59038;SDS011;44824;43.376;19.630;2022-10-16T09:30:35;11.65;;;5.53;;
59038;SDS011;44824;43.376;19.630;2022-10-16T09:33:20;10.88;;;4.95;;
59038;SDS011;44824;43.376;19.630;2022-10-16T09:35:51;11.40;;;4.80;;
59038;SDS011;44824;43.376;19.630;2022-10-16T09:38:36;11.20;;;5.63;;
59038;SDS011;44824;43.376;19.630;2022-10-16T09:41:08;8.35;;;4.35;;
59038;SDS011;44824;43.376;19.630;2022-10-16T09:43:59;9.57;;;4.68;;
59038;SDS011;44824;43.376;19.630;2022-10-16T09:49:03;8.60;;;4.80;;
59038;SDS011;44824;43.376;19.630;2022-10-16T09:51:33;8.50;;;5.18;;
59038;SDS011;44824;43.376;19.630;2022-10-16T09:56:45;12.27;;;4.88;;
59038;SDS011;44824;43.376;19.630;2022-10-16T09:59:20;9.15;;;5.03;;
59038;SDS011;44824;43.376;19.630;2022-10-16T10:01:52;10.60;;;5.00;;
59038;SDS011;44824;43.376;19.630;2022-10-16T10:10:19;11.02;;;5.75;;
59038;SDS011;44824;43.376;19.630;2022-10-16T10:15:50;13.95;;;7.90;;
59038;SDS011;44824;43.376;19.630;2022-10-16T10:18:20;14.85;;;8.85;;
59038;SDS011;44824;43.376;19.630;2022-10-16T10:21:00;13.02;;;8.05;;
59038;SDS011;44824;43.376;19.630;2022-10-16T10:23:35;10.55;;;6.38;;
59038;SDS011;44824;43.376;19.630;2022-10-16T10:26:18;9.55;;;5.43;;
59038;SDS011;44824;43.376;19.630;2022-10-16T10:28:59;13.32;;;7.40;;
59038;SDS011;44824;43.376;19.630;2022-10-16T10:31:37;13.05;;;6.10;;
59038;SDS011;44824;43.376;19.630;2022-10-16T10:36:53;10.05;;;4.60;;
59038;SDS011;44824;43.376;19.630;2022-10-16T10:44:54;10.20;;;3.65;;
59038;SDS011;44824;43.376;19.630;2022-10-16T10:55:10;6.68;;;3.55;;
59038;SDS011;44824;43.376;19.630;2022-10-16T11:00:22;8.50;;;3.75;;
59038;SDS011;44824;43.376;19.630;2022-10-16T11:07:48;7.57;;;4.00;;
59038;SDS011;44824;43.376;19.630;2022-10-16T11:10:16;11.02;;;4.20;;
59038;SDS011;44824;43.376;19.630;2022-10-16T11:12:46;8.73;;;4.38;;
59038;SDS011;44824;43.376;19.630;2022-10-16T11:15:15;8.68;;;4.10;;
59038;SDS011;44824;43.376;19.630;2022-10-16T11:17:45;9.07;;;4.50;;
59038;SDS011;44824;43.376;19.630;2022-10-16T11:20:34;7.93;;;4.05;;
59038;SDS011;44824;43.376;19.630;2022-10-16T11:26:05;10.07;;;4.10;;
59038;SDS011;44824;43.376;19.630;2022-10-16T11:28:42;7.45;;;3.83;;
59038;SDS011;44824;43.376;19.630;2022-10-16T11:37:06;10.70;;;4.00;;
59038;SDS011;44824;43.376;19.630;2022-10-16T11:39:35;9.70;;;3.58;;
59038;SDS011;44824;43.376;19.630;2022-10-16T11:50:26;7.40;;;3.50;;
59038;SDS011;44824;43.376;19.630;2022-10-16T11:55:23;7.25;;;3.25;;
59038;SDS011;44824;43.376;19.630;2022-10-16T11:58:00;10.98;;;3.63;;
59038;SDS011;44824;43.376;19.630;2022-10-16T12:00:33;7.53;;;3.30;;
59038;SDS011;44824;43.376;19.630;2022-10-16T12:08:13;6.93;;;3.03;;
59038;SDS011;44824;43.376;19.630;2022-10-16T12:13:43;7.60;;;3.50;;
59038;SDS011;44824;43.376;19.630;2022-10-16T12:16:28;6.22;;;3.15;;
59038;SDS011;44824;43.376;19.630;2022-10-16T12:19:13;10.65;;;3.20;;
59038;SDS011;44824;43.376;19.630;2022-10-16T12:21:40;7.47;;;3.45;;
59038;SDS011;44824;43.376;19.630;2022-10-16T12:24:06;7.57;;;3.17;;
59038;SDS011;44824;43.376;19.630;2022-10-16T12:26:46;8.10;;;3.08;;
59038;SDS011;44824;43.376;19.630;2022-10-16T12:31:57;8.05;;;3.42;;
59038;SDS011;44824;43.376;19.630;2022-10-16T12:36:52;7.15;;;2.90;;
59038;SDS011;44824;43.376;19.630;2022-10-16T12:39:23;7.70;;;2.80;;
59038;SDS011;44824;43.376;19.630;2022-10-16T12:42:03;8.65;;;2.65;;
59038;SDS011;44824;43.376;19.630;2022-10-16T12:54:52;6.43;;;2.83;;
59038;SDS011;44824;43.376;19.630;2022-10-16T13:10:59;7.15;;;2.67;;
59038;SDS011;44824;43.376;19.630;2022-10-16T13:24:18;6.47;;;3.00;;
59038;SDS011;44824;43.376;19.630;2022-10-16T13:29:33;7.30;;;3.10;;
59038;SDS011;44824;43.376;19.630;2022-10-16T13:32:00;8.50;;;3.25;;
59038;SDS011;44824;43.376;19.630;2022-10-16T13:34:56;7.50;;;3.20;;
59038;SDS011;44824;43.376;19.630;2022-10-16T13:37:29;12.10;;;3.35;;
59038;SDS011;44824;43.376;19.630;2022-10-16T13:42:34;7.30;;;3.60;;
59038;SDS011;44824;43.376;19.630;2022-10-16T13:45:16;16.27;;;3.72;;
59038;SDS011;44824;43.376;19.630;2022-10-16T13:48:15;9.57;;;3.58;;
59038;SDS011;44824;43.376;19.630;2022-10-16T13:50:45;8.50;;;3.35;;
59038;SDS011;44824;43.376;19.630;2022-10-16T13:53:20;7.30;;;3.58;;
59038;SDS011;44824;43.376;19.630;2022-10-16T13:55:58;9.05;;;3.58;;
59038;SDS011;44824;43.376;19.630;2022-10-16T13:58:25;9.48;;;3.50;;
59038;SDS011;44824;43.376;19.630;2022-10-16T14:03:27;7.97;;;3.92;;
59038;SDS011;44824;43.376;19.630;2022-10-16T14:05:58;8.70;;;3.58;;
59038;SDS011;44824;43.376;19.630;2022-10-16T14:08:53;9.43;;;3.58;;
59038;SDS011;44824;43.376;19.630;2022-10-16T14:11:24;8.63;;;4.05;;
59038;SDS011;44824;43.376;19.630;2022-10-16T14:13:50;12.48;;;4.50;;
59038;SDS011;44824;43.376;19.630;2022-10-16T14:16:21;8.07;;;4.30;;
59038;SDS011;44824;43.376;19.630;2022-10-16T14:18:59;22.17;;;5.90;;
59038;SDS011;44824;43.376;19.630;2022-10-16T14:21:27;18.15;;;4.63;;
59038;SDS011;44824;43.376;19.630;2022-10-16T14:23:53;9.57;;;4.03;;
59038;SDS011;44824;43.376;19.630;2022-10-16T14:26:29;11.77;;;4.75;;
59038;SDS011;44824;43.376;19.630;2022-10-16T14:32:04;8.07;;;3.63;;
59038;SDS011;44824;43.376;19.630;2022-10-16T14:34:31;7.53;;;4.32;;
59038;SDS011;44824;43.376;19.630;2022-10-16T14:37:08;13.75;;;4.70;;
59038;SDS011;44824;43.376;19.630;2022-10-16T14:39:36;9.45;;;4.70;;
59038;SDS011;44824;43.376;19.630;2022-10-16T14:42:02;7.97;;;4.28;;
59038;SDS011;44824;43.376;19.630;2022-10-16T14:44:47;11.05;;;4.53;;
59038;SDS011;44824;43.376;19.630;2022-10-16T14:47:15;11.20;;;5.20;;
59038;SDS011;44824;43.376;19.630;2022-10-16T14:50:00;15.98;;;6.20;;
59038;SDS011;44824;43.376;19.630;2022-10-16T14:52:26;12.32;;;4.90;;
59038;SDS011;44824;43.376;19.630;2022-10-16T14:54:52;11.00;;;6.05;;
59038;SDS011;44824;43.376;19.630;2022-10-16T14:57:26;13.60;;;6.13;;
59038;SDS011;44824;43.376;19.630;2022-10-16T15:02:40;9.85;;;5.63;;
59038;SDS011;44824;43.376;19.630;2022-10-16T15:07:37;15.25;;;7.88;;
59038;SDS011;44824;43.376;19.630;2022-10-16T15:10:03;19.08;;;10.43;;
59038;SDS011;44824;43.376;19.630;2022-10-16T15:14:55;40.17;;;26.30;;
59038;SDS011;44824;43.376;19.630;2022-10-16T15:30:41;27.15;;;11.68;;
59038;SDS011;44824;43.376;19.630;2022-10-16T15:33:17;23.65;;;10.95;;
59038;SDS011;44824;43.376;19.630;2022-10-16T15:35:45;24.85;;;13.00;;
59038;SDS011;44824;43.376;19.630;2022-10-16T15:38:27;21.45;;;12.20;;
59038;SDS011;44824;43.376;19.630;2022-10-16T15:40:54;21.88;;;12.35;;
59038;SDS011;44824;43.376;19.630;2022-10-16T15:43:23;26.25;;;12.93;;
59038;SDS011;44824;43.376;19.630;2022-10-16T16:02:32;23.80;;;13.73;;
59038;SDS011;44824;43.376;19.630;2022-10-16T16:05:04;25.20;;;13.57;;
59038;SDS011;44824;43.376;19.630;2022-10-16T16:09:59;22.27;;;14.23;;
59038;SDS011;44824;43.376;19.630;2022-10-16T16:12:25;26.97;;;14.17;;
59038;SDS011;44824;43.376;19.630;2022-10-16T16:14:54;25.03;;;14.93;;
59038;SDS011;44824;43.376;19.630;2022-10-16T16:17:20;26.58;;;15.70;;
59038;SDS011;44824;43.376;19.630;2022-10-16T16:22:51;26.40;;;14.68;;
59038;SDS011;44824;43.376;19.630;2022-10-16T16:25:20;32.87;;;16.73;;
59038;SDS011;44824;43.376;19.630;2022-10-16T16:27:49;39.60;;;20.40;;
59038;SDS011;44824;43.376;19.630;2022-10-16T16:33:09;36.47;;;22.15;;
59038;SDS011;44824;43.376;19.630;2022-10-16T16:38:26;32.05;;;20.50;;
59038;SDS011;44824;43.376;19.630;2022-10-16T16:48:45;39.65;;;20.83;;
59038;SDS011;44824;43.376;19.630;2022-10-16T16:51:23;27.92;;;18.60;;
59038;SDS011;44824;43.376;19.630;2022-10-16T16:53:58;42.90;;;29.00;;
59038;SDS011;44824;43.376;19.630;2022-10-16T16:56:25;30.02;;;19.80;;
59038;SDS011;44824;43.376;19.630;2022-10-16T16:59:19;34.92;;;24.30;;
59038;SDS011;44824;43.376;19.630;2022-10-16T17:01:50;35.15;;;22.38;;
59038;SDS011;44824;43.376;19.630;2022-10-16T17:04:29;42.75;;;22.23;;
59038;SDS011;44824;43.376;19.630;2022-10-16T17:10:17;28.15;;;18.50;;
59038;SDS011;44824;43.376;19.630;2022-10-16T17:18:44;44.58;;;24.25;;
59038;SDS011;44824;43.376;19.630;2022-10-16T17:21:31;41.78;;;27.67;;
59038;SDS011;44824;43.376;19.630;2022-10-16T17:24:03;39.75;;;28.52;;
59038;SDS011;44824;43.376;19.630;2022-10-16T17:26:30;61.92;;;53.10;;
59038;SDS011;44824;43.376;19.630;2022-10-16T17:28:57;35.13;;;24.58;;
59038;SDS011;44824;43.376;19.630;2022-10-16T17:33:49;38.88;;;26.85;;
59038;SDS011;44824;43.376;19.630;2022-10-16T17:36:19;44.45;;;27.20;;
59038;SDS011;44824;43.376;19.630;2022-10-16T17:38:45;38.10;;;25.77;;
59038;SDS011;44824;43.376;19.630;2022-10-16T17:41:19;57.42;;;24.50;;
59038;SDS011;44824;43.376;19.630;2022-10-16T17:43:54;52.55;;;27.75;;
59038;SDS011;44824;43.376;19.630;2022-10-16T17:49:24;54.20;;;29.08;;
59038;SDS011;44824;43.376;19.630;2022-10-16T17:51:51;37.08;;;23.92;;
59038;SDS011;44824;43.376;19.630;2022-10-16T17:54:17;34.28;;;24.48;;
59038;SDS011;44824;43.376;19.630;2022-10-16T17:56:43;36.78;;;24.60;;
59038;SDS011;44824;43.376;19.630;2022-10-16T17:59:11;43.08;;;26.50;;
59038;SDS011;44824;43.376;19.630;2022-10-16T18:01:44;33.93;;;26.30;;
59038;SDS011;44824;43.376;19.630;2022-10-16T18:04:11;35.80;;;27.60;;
59038;SDS011;44824;43.376;19.630;2022-10-16T18:06:37;42.58;;;29.48;;
59038;SDS011;44824;43.376;19.630;2022-10-16T18:09:04;36.30;;;26.95;;
59038;SDS011;44824;43.376;19.630;2022-10-16T18:11:31;37.63;;;24.88;;
59038;SDS011;44824;43.376;19.630;2022-10-16T18:13:58;36.20;;;25.70;;
59038;SDS011;44824;43.376;19.630;2022-10-16T18:16:24;42.40;;;28.33;;
59038;SDS011;44824;43.376;19.630;2022-10-16T18:18:52;43.60;;;28.17;;
59038;SDS011;44824;43.376;19.630;2022-10-16T18:21:19;48.58;;;29.33;;
59038;SDS011;44824;43.376;19.630;2022-10-16T18:23:45;41.67;;;27.95;;
59038;SDS011;44824;43.376;19.630;2022-10-16T18:26:35;38.55;;;27.90;;
59038;SDS011;44824;43.376;19.630;2022-10-16T18:29:13;37.63;;;27.50;;
59038;SDS011;44824;43.376;19.630;2022-10-16T18:31:52;46.45;;;31.50;;
59038;SDS011;44824;43.376;19.630;2022-10-16T18:34:18;50.13;;;31.90;;
59038;SDS011;44824;43.376;19.630;2022-10-16T18:36:57;45.92;;;30.02;;
59038;SDS011;44824;43.376;19.630;2022-10-16T18:39:36;45.90;;;29.75;;
59038;SDS011;44824;43.376;19.630;2022-10-16T18:42:03;42.08;;;28.77;;
59038;SDS011;44824;43.376;19.630;2022-10-16T18:44:29;45.90;;;30.70;;
59038;SDS011;44824;43.376;19.630;2022-10-16T18:46:55;44.17;;;31.80;;
59038;SDS011;44824;43.376;19.630;2022-10-16T18:49:32;62.45;;;42.35;;
59038;SDS011;44824;43.376;19.630;2022-10-16T18:51:58;67.93;;;51.85;;
59038;SDS011;44824;43.376;19.630;2022-10-16T18:54:30;67.07;;;45.10;;
59038;SDS011;44824;43.376;19.630;2022-10-16T18:56:56;54.38;;;39.13;;
59038;SDS011;44824;43.376;19.630;2022-10-16T18:59:30;56.15;;;38.50;;
59038;SDS011;44824;43.376;19.630;2022-10-16T19:02:02;55.97;;;39.05;;
59038;SDS011;44824;43.376;19.630;2022-10-16T19:04:34;59.25;;;40.00;;
59038;SDS011;44824;43.376;19.630;2022-10-16T19:07:00;61.78;;;42.90;;
59038;SDS011;44824;43.376;19.630;2022-10-16T19:09:26;62.42;;;38.17;;
59038;SDS011;44824;43.376;19.630;2022-10-16T19:11:52;49.85;;;34.83;;
59038;SDS011;44824;43.376;19.630;2022-10-16T19:14:31;62.95;;;45.38;;
59038;SDS011;44824;43.376;19.630;2022-10-16T19:16:58;59.13;;;40.70;;
59038;SDS011;44824;43.376;19.630;2022-10-16T19:19:44;55.60;;;39.58;;
59038;SDS011;44824;43.376;19.630;2022-10-16T19:22:10;61.80;;;42.25;;
59038;SDS011;44824;43.376;19.630;2022-10-16T19:24:54;43.70;;;31.30;;
59038;SDS011;44824;43.376;19.630;2022-10-16T19:27:20;50.38;;;33.17;;
59038;SDS011;44824;43.376;19.630;2022-10-16T19:29:46;56.10;;;36.13;;
59038;SDS011;44824;43.376;19.630;2022-10-16T19:35:11;58.97;;;39.20;;
59038;SDS011;44824;43.376;19.630;2022-10-16T19:42:49;46.92;;;31.58;;
59038;SDS011;44824;43.376;19.630;2022-10-16T19:45:31;53.30;;;35.63;;
59038;SDS011;44824;43.376;19.630;2022-10-16T19:48:02;61.55;;;41.38;;